sensor_id;sensor_type;location;lat;lon;timestamp;P1;durP1;ratioP1;P2;durP2;ratioP2
3689;SDS011;1861;50.240;8.596;2022-10-18T00:00:47;23.50;;;3.50;;
3689;SDS011;1861;50.240;8.596;2022-10-18T00:03:35;10.40;;;2.93;;
3689;SDS011;1861;50.240;8.596;2022-10-18T00:06:24;4.50;;;2.10;;
3689;SDS011;1861;50.240;8.596;2022-10-18T00:09:12;6.70;;;2.17;;
3689;SDS011;1861;50.240;8.596;2022-10-18T00:12:00;5.20;;;2.30;;
3689;SDS011;1861;50.240;8.596;2022-10-18T00:14:50;19.70;;;3.77;;
3689;SDS011;1861;50.240;8.596;2022-10-18T00:17:38;5.80;;;2.40;;
3689;SDS011;1861;50.240;8.596;2022-10-18T00:20:26;5.87;;;2.50;;
3689;SDS011;1861;50.240;8.596;2022-10-18T00:23:14;4.72;;;2.20;;
3689;SDS011;1861;50.240;8.596;2022-10-18T00:26:03;3.93;;;2.57;;
3689;SDS011;1861;50.240;8.596;2022-10-18T00:28:54;5.53;;;2.57;;
3689;SDS011;1861;50.240;8.596;2022-10-18T00:31:44;5.60;;;2.63;;
3689;SDS011;1861;50.240;8.596;2022-10-18T00:34:32;6.50;;;2.77;;
3689;SDS011;1861;50.240;8.596;2022-10-18T00:37:21;8.13;;;2.87;;
3689;SDS011;1861;50.240;8.596;2022-10-18T00:40:09;10.10;;;2.90;;
3689;SDS011;1861;50.240;8.596;2022-10-18T00:42:57;3.00;;;2.63;;
3689;SDS011;1861;50.240;8.596;2022-10-18T00:45:45;7.50;;;2.33;;
3689;SDS011;1861;50.240;8.596;2022-10-18T00:48:35;5.20;;;2.20;;
3689;SDS011;1861;50.240;8.596;2022-10-18T00:51:24;7.63;;;2.80;;
3689;SDS011;1861;50.240;8.596;2022-10-18T00:53:54;4.37;;;2.70;;
3689;SDS011;1861;50.240;8.596;2022-10-18T00:56:23;7.90;;;2.87;;
3689;SDS011;1861;50.240;8.596;2022-10-18T00:58:51;6.60;;;2.63;;
3689;SDS011;1861;50.240;8.596;2022-10-18T01:01:20;8.07;;;3.00;;
3689;SDS011;1861;50.240;8.596;2022-10-18T01:03:55;6.57;;;3.27;;
3689;SDS011;1861;50.240;8.596;2022-10-18T01:06:23;8.60;;;3.00;;
3689;SDS011;1861;50.240;8.596;2022-10-18T01:08:57;7.13;;;3.40;;
3689;SDS011;1861;50.240;8.596;2022-10-18T01:11:36;10.37;;;2.60;;
3689;SDS011;1861;50.240;8.596;2022-10-18T01:14:18;7.70;;;3.20;;
3689;SDS011;1861;50.240;8.596;2022-10-18T01:16:58;6.17;;;2.50;;
3689;SDS011;1861;50.240;8.596;2022-10-18T01:19:38;13.43;;;2.87;;
3689;SDS011;1861;50.240;8.596;2022-10-18T01:22:30;12.53;;;2.97;;
3689;SDS011;1861;50.240;8.596;2022-10-18T01:25:05;6.43;;;3.10;;
3689;SDS011;1861;50.240;8.596;2022-10-18T01:27:47;12.77;;;3.40;;
3689;SDS011;1861;50.240;8.596;2022-10-18T01:30:27;9.27;;;3.23;;
3689;SDS011;1861;50.240;8.596;2022-10-18T01:33:04;9.47;;;3.03;;
3689;SDS011;1861;50.240;8.596;2022-10-18T01:35:41;7.70;;;2.60;;
3689;SDS011;1861;50.240;8.596;2022-10-18T01:38:13;4.70;;;3.13;;
3689;SDS011;1861;50.240;8.596;2022-10-18T01:40:44;7.65;;;3.35;;
3689;SDS011;1861;50.240;8.596;2022-10-18T01:43:14;5.53;;;3.13;;
3689;SDS011;1861;50.240;8.596;2022-10-18T01:45:45;6.73;;;2.77;;
3689;SDS011;1861;50.240;8.596;2022-10-18T01:48:14;3.53;;;3.23;;
3689;SDS011;1861;50.240;8.596;2022-10-18T01:51:04;10.10;;;3.03;;
3689;SDS011;1861;50.240;8.596;2022-10-18T01:53:33;10.13;;;2.97;;
3689;SDS011;1861;50.240;8.596;2022-10-18T01:59:09;9.90;;;2.93;;
3689;SDS011;1861;50.240;8.596;2022-10-18T02:01:49;7.40;;;3.07;;
3689;SDS011;1861;50.240;8.596;2022-10-18T02:04:28;5.60;;;3.08;;
3689;SDS011;1861;50.240;8.596;2022-10-18T02:07:05;3.67;;;3.27;;
3689;SDS011;1861;50.240;8.596;2022-10-18T02:09:45;7.33;;;3.13;;
3689;SDS011;1861;50.240;8.596;2022-10-18T02:12:18;7.13;;;3.50;;
3689;SDS011;1861;50.240;8.596;2022-10-18T02:14:47;9.27;;;3.75;;
3689;SDS011;1861;50.240;8.596;2022-10-18T02:17:18;7.05;;;3.80;;
3689;SDS011;1861;50.240;8.596;2022-10-18T02:19:48;5.90;;;3.33;;
3689;SDS011;1861;50.240;8.596;2022-10-18T02:22:19;9.50;;;3.67;;
3689;SDS011;1861;50.240;8.596;2022-10-18T02:24:50;4.83;;;3.37;;
3689;SDS011;1861;50.240;8.596;2022-10-18T02:27:21;5.17;;;3.07;;
3689;SDS011;1861;50.240;8.596;2022-10-18T02:29:49;12.03;;;3.10;;
3689;SDS011;1861;50.240;8.596;2022-10-18T02:32:20;4.80;;;3.60;;
3689;SDS011;1861;50.240;8.596;2022-10-18T02:34:58;7.90;;;3.13;;
3689;SDS011;1861;50.240;8.596;2022-10-18T02:37:29;5.40;;;3.17;;
3689;SDS011;1861;50.240;8.596;2022-10-18T02:40:01;5.40;;;3.03;;
3689;SDS011;1861;50.240;8.596;2022-10-18T02:42:33;4.73;;;3.47;;
3689;SDS011;1861;50.240;8.596;2022-10-18T02:45:03;3.42;;;2.42;;
3689;SDS011;1861;50.240;8.596;2022-10-18T02:47:34;4.80;;;2.87;;
3689;SDS011;1861;50.240;8.596;2022-10-18T02:50:02;4.27;;;2.80;;
3689;SDS011;1861;50.240;8.596;2022-10-18T02:52:31;3.23;;;2.80;;
3689;SDS011;1861;50.240;8.596;2022-10-18T02:54:59;3.57;;;2.80;;
3689;SDS011;1861;50.240;8.596;2022-10-18T02:57:28;6.00;;;2.53;;
3689;SDS011;1861;50.240;8.596;2022-10-18T02:59:57;2.53;;;2.30;;
3689;SDS011;1861;50.240;8.596;2022-10-18T03:02:25;8.13;;;2.77;;
3689;SDS011;1861;50.240;8.596;2022-10-18T03:04:54;3.80;;;2.60;;
3689;SDS011;1861;50.240;8.596;2022-10-18T03:07:22;3.67;;;2.13;;
3689;SDS011;1861;50.240;8.596;2022-10-18T03:09:50;6.27;;;2.40;;
3689;SDS011;1861;50.240;8.596;2022-10-18T03:12:18;3.20;;;2.33;;
3689;SDS011;1861;50.240;8.596;2022-10-18T03:14:46;2.13;;;1.90;;
3689;SDS011;1861;50.240;8.596;2022-10-18T03:17:14;1.40;;;1.30;;
3689;SDS011;1861;50.240;8.596;2022-10-18T03:19:43;1.57;;;1.37;;
3689;SDS011;1861;50.240;8.596;2022-10-18T03:22:12;2.55;;;1.52;;
3689;SDS011;1861;50.240;8.596;2022-10-18T03:24:40;2.17;;;1.27;;
3689;SDS011;1861;50.240;8.596;2022-10-18T03:27:08;3.57;;;1.83;;
3689;SDS011;1861;50.240;8.596;2022-10-18T03:29:36;1.97;;;1.17;;
3689;SDS011;1861;50.240;8.596;2022-10-18T03:32:04;3.90;;;1.63;;
3689;SDS011;1861;50.240;8.596;2022-10-18T03:34:32;3.63;;;1.03;;
3689;SDS011;1861;50.240;8.596;2022-10-18T03:37:00;2.87;;;0.90;;
3689;SDS011;1861;50.240;8.596;2022-10-18T03:39:32;2.50;;;1.10;;
3689;SDS011;1861;50.240;8.596;2022-10-18T03:42:00;2.90;;;1.10;;
3689;SDS011;1861;50.240;8.596;2022-10-18T03:44:28;2.20;;;0.90;;
3689;SDS011;1861;50.240;8.596;2022-10-18T03:46:56;3.33;;;0.97;;
3689;SDS011;1861;50.240;8.596;2022-10-18T03:49:24;2.53;;;1.00;;
3689;SDS011;1861;50.240;8.596;2022-10-18T03:51:52;5.87;;;1.00;;
3689;SDS011;1861;50.240;8.596;2022-10-18T03:54:20;3.43;;;1.00;;
3689;SDS011;1861;50.240;8.596;2022-10-18T03:56:49;1.67;;;1.00;;
3689;SDS011;1861;50.240;8.596;2022-10-18T03:59:18;4.87;;;1.00;;
3689;SDS011;1861;50.240;8.596;2022-10-18T04:01:46;1.70;;;0.80;;
3689;SDS011;1861;50.240;8.596;2022-10-18T04:04:14;2.50;;;0.80;;
3689;SDS011;1861;50.240;8.596;2022-10-18T04:06:42;0.95;;;0.70;;
3689;SDS011;1861;50.240;8.596;2022-10-18T04:09:10;1.57;;;1.10;;
3689;SDS011;1861;50.240;8.596;2022-10-18T04:11:38;2.70;;;0.70;;
3689;SDS011;1861;50.240;8.596;2022-10-18T04:14:08;1.30;;;0.93;;
3689;SDS011;1861;50.240;8.596;2022-10-18T04:16:54;1.77;;;0.77;;
3689;SDS011;1861;50.240;8.596;2022-10-18T04:19:22;1.33;;;0.70;;
3689;SDS011;1861;50.240;8.596;2022-10-18T04:21:50;1.83;;;0.70;;
3689;SDS011;1861;50.240;8.596;2022-10-18T04:24:18;1.10;;;0.60;;
3689;SDS011;1861;50.240;8.596;2022-10-18T04:26:46;1.97;;;0.60;;
3689;SDS011;1861;50.240;8.596;2022-10-18T04:29:16;1.03;;;0.70;;
3689;SDS011;1861;50.240;8.596;2022-10-18T04:31:44;1.07;;;0.60;;
3689;SDS011;1861;50.240;8.596;2022-10-18T04:34:13;0.70;;;0.70;;
3689;SDS011;1861;50.240;8.596;2022-10-18T04:36:41;0.90;;;0.60;;
3689;SDS011;1861;50.240;8.596;2022-10-18T04:39:09;2.40;;;0.80;;
3689;SDS011;1861;50.240;8.596;2022-10-18T04:41:37;1.17;;;0.80;;
3689;SDS011;1861;50.240;8.596;2022-10-18T04:44:05;1.00;;;0.70;;
3689;SDS011;1861;50.240;8.596;2022-10-18T04:46:34;5.30;;;1.27;;
3689;SDS011;1861;50.240;8.596;2022-10-18T04:49:04;1.43;;;0.80;;
3689;SDS011;1861;50.240;8.596;2022-10-18T04:51:53;1.53;;;0.90;;
3689;SDS011;1861;50.240;8.596;2022-10-18T04:54:21;0.77;;;0.73;;
3689;SDS011;1861;50.240;8.596;2022-10-18T04:56:53;4.10;;;0.80;;
3689;SDS011;1861;50.240;8.596;2022-10-18T04:59:22;4.43;;;0.93;;
3689;SDS011;1861;50.240;8.596;2022-10-18T05:01:51;1.43;;;0.83;;
3689;SDS011;1861;50.240;8.596;2022-10-18T05:04:19;1.70;;;0.97;;
3689;SDS011;1861;50.240;8.596;2022-10-18T05:06:47;0.80;;;0.70;;
3689;SDS011;1861;50.240;8.596;2022-10-18T05:09:16;1.97;;;1.00;;
3689;SDS011;1861;50.240;8.596;2022-10-18T05:11:44;3.00;;;1.20;;
3689;SDS011;1861;50.240;8.596;2022-10-18T05:14:12;0.80;;;0.80;;
3689;SDS011;1861;50.240;8.596;2022-10-18T05:16:40;1.27;;;1.13;;
3689;SDS011;1861;50.240;8.596;2022-10-18T05:19:09;1.50;;;1.10;;
3689;SDS011;1861;50.240;8.596;2022-10-18T05:21:37;1.60;;;0.90;;
3689;SDS011;1861;50.240;8.596;2022-10-18T05:24:05;3.90;;;1.37;;
3689;SDS011;1861;50.240;8.596;2022-10-18T05:26:34;1.67;;;1.23;;
3689;SDS011;1861;50.240;8.596;2022-10-18T05:29:02;2.17;;;0.87;;
3689;SDS011;1861;50.240;8.596;2022-10-18T05:31:30;3.00;;;1.00;;
3689;SDS011;1861;50.240;8.596;2022-10-18T05:33:58;1.43;;;1.00;;
3689;SDS011;1861;50.240;8.596;2022-10-18T05:36:28;1.80;;;0.73;;
3689;SDS011;1861;50.240;8.596;2022-10-18T05:38:56;3.67;;;1.00;;
3689;SDS011;1861;50.240;8.596;2022-10-18T05:41:30;2.40;;;0.97;;
3689;SDS011;1861;50.240;8.596;2022-10-18T05:44:01;1.27;;;1.00;;
3689;SDS011;1861;50.240;8.596;2022-10-18T05:46:30;6.00;;;1.00;;
3689;SDS011;1861;50.240;8.596;2022-10-18T05:48:58;2.30;;;0.90;;
3689;SDS011;1861;50.240;8.596;2022-10-18T05:51:45;2.20;;;1.17;;
3689;SDS011;1861;50.240;8.596;2022-10-18T05:54:13;1.00;;;0.90;;
3689;SDS011;1861;50.240;8.596;2022-10-18T05:56:41;2.90;;;1.00;;
3689;SDS011;1861;50.240;8.596;2022-10-18T05:59:10;1.80;;;0.90;;
3689;SDS011;1861;50.240;8.596;2022-10-18T06:01:38;6.20;;;1.07;;
3689;SDS011;1861;50.240;8.596;2022-10-18T06:04:07;1.97;;;1.10;;
3689;SDS011;1861;50.240;8.596;2022-10-18T06:06:37;8.30;;;1.20;;
3689;SDS011;1861;50.240;8.596;2022-10-18T06:09:06;1.67;;;1.10;;
3689;SDS011;1861;50.240;8.596;2022-10-18T06:11:35;2.20;;;0.90;;
3689;SDS011;1861;50.240;8.596;2022-10-18T06:14:03;4.90;;;1.90;;
3689;SDS011;1861;50.240;8.596;2022-10-18T06:16:31;6.30;;;1.20;;
3689;SDS011;1861;50.240;8.596;2022-10-18T06:18:59;2.90;;;1.03;;
3689;SDS011;1861;50.240;8.596;2022-10-18T06:21:27;2.50;;;1.00;;
3689;SDS011;1861;50.240;8.596;2022-10-18T06:23:56;19.03;;;1.43;;
3689;SDS011;1861;50.240;8.596;2022-10-18T06:26:27;1.53;;;1.10;;
3689;SDS011;1861;50.240;8.596;2022-10-18T06:28:55;1.40;;;1.13;;
3689;SDS011;1861;50.240;8.596;2022-10-18T06:31:23;2.63;;;1.33;;
3689;SDS011;1861;50.240;8.596;2022-10-18T06:33:51;8.90;;;1.60;;
3689;SDS011;1861;50.240;8.596;2022-10-18T06:36:19;1.57;;;1.00;;
3689;SDS011;1861;50.240;8.596;2022-10-18T06:38:48;1.50;;;1.10;;
3689;SDS011;1861;50.240;8.596;2022-10-18T06:41:17;1.63;;;1.33;;
3689;SDS011;1861;50.240;8.596;2022-10-18T06:43:48;2.80;;;2.00;;
3689;SDS011;1861;50.240;8.596;2022-10-18T06:46:16;4.40;;;1.47;;
3689;SDS011;1861;50.240;8.596;2022-10-18T06:48:44;2.63;;;1.70;;
3689;SDS011;1861;50.240;8.596;2022-10-18T06:51:13;1.60;;;1.50;;
3689;SDS011;1861;50.240;8.596;2022-10-18T06:53:41;2.57;;;1.77;;
3689;SDS011;1861;50.240;8.596;2022-10-18T06:56:29;4.20;;;1.50;;
3689;SDS011;1861;50.240;8.596;2022-10-18T06:58:59;1.93;;;1.60;;
3689;SDS011;1861;50.240;8.596;2022-10-18T07:01:27;2.27;;;1.90;;
3689;SDS011;1861;50.240;8.596;2022-10-18T07:03:55;2.40;;;2.20;;
3689;SDS011;1861;50.240;8.596;2022-10-18T07:06:59;3.00;;;1.70;;
3689;SDS011;1861;50.240;8.596;2022-10-18T07:09:27;2.30;;;1.37;;
3689;SDS011;1861;50.240;8.596;2022-10-18T07:11:55;6.10;;;2.00;;
3689;SDS011;1861;50.240;8.596;2022-10-18T07:14:24;2.47;;;1.80;;
3689;SDS011;1861;50.240;8.596;2022-10-18T07:16:57;2.40;;;1.80;;
3689;SDS011;1861;50.240;8.596;2022-10-18T07:19:25;4.50;;;1.80;;
3689;SDS011;1861;50.240;8.596;2022-10-18T07:21:53;1.87;;;1.53;;
3689;SDS011;1861;50.240;8.596;2022-10-18T07:24:21;1.83;;;1.53;;
3689;SDS011;1861;50.240;8.596;2022-10-18T07:26:49;2.30;;;1.70;;
3689;SDS011;1861;50.240;8.596;2022-10-18T07:29:17;4.50;;;2.67;;
3689;SDS011;1861;50.240;8.596;2022-10-18T07:31:47;3.07;;;2.00;;
3689;SDS011;1861;50.240;8.596;2022-10-18T07:34:15;2.03;;;1.53;;
3689;SDS011;1861;50.240;8.596;2022-10-18T07:36:57;2.60;;;1.60;;
3689;SDS011;1861;50.240;8.596;2022-10-18T07:39:25;3.57;;;1.50;;
3689;SDS011;1861;50.240;8.596;2022-10-18T07:41:53;3.70;;;1.80;;
3689;SDS011;1861;50.240;8.596;2022-10-18T07:44:21;2.27;;;1.73;;
3689;SDS011;1861;50.240;8.596;2022-10-18T07:46:51;7.07;;;1.60;;
3689;SDS011;1861;50.240;8.596;2022-10-18T07:49:19;2.87;;;1.80;;
3689;SDS011;1861;50.240;8.596;2022-10-18T07:51:47;3.75;;;1.50;;
3689;SDS011;1861;50.240;8.596;2022-10-18T07:54:15;4.17;;;1.67;;
3689;SDS011;1861;50.240;8.596;2022-10-18T07:56:43;4.53;;;1.77;;
3689;SDS011;1861;50.240;8.596;2022-10-18T07:59:12;1.77;;;1.50;;
3689;SDS011;1861;50.240;8.596;2022-10-18T08:02:14;3.17;;;1.67;;
3689;SDS011;1861;50.240;8.596;2022-10-18T08:04:42;1.73;;;1.40;;
3689;SDS011;1861;50.240;8.596;2022-10-18T08:07:10;2.30;;;2.10;;
3689;SDS011;1861;50.240;8.596;2022-10-18T08:09:38;2.43;;;1.37;;
3689;SDS011;1861;50.240;8.596;2022-10-18T08:12:06;2.30;;;1.43;;
3689;SDS011;1861;50.240;8.596;2022-10-18T08:14:34;1.77;;;1.20;;
3689;SDS011;1861;50.240;8.596;2022-10-18T08:17:02;2.13;;;1.88;;
3689;SDS011;1861;50.240;8.596;2022-10-18T08:19:31;3.20;;;1.20;;
3689;SDS011;1861;50.240;8.596;2022-10-18T08:21:59;1.85;;;0.90;;
3689;SDS011;1861;50.240;8.596;2022-10-18T08:24:27;0.90;;;0.80;;
3689;SDS011;1861;50.240;8.596;2022-10-18T08:26:55;2.23;;;0.90;;
3689;SDS011;1861;50.240;8.596;2022-10-18T08:29:23;2.60;;;1.00;;
3689;SDS011;1861;50.240;8.596;2022-10-18T08:31:57;0.80;;;0.80;;
3689;SDS011;1861;50.240;8.596;2022-10-18T08:34:25;1.20;;;0.80;;
3689;SDS011;1861;50.240;8.596;2022-10-18T08:36:54;1.40;;;0.70;;
3689;SDS011;1861;50.240;8.596;2022-10-18T08:39:22;0.90;;;0.60;;
3689;SDS011;1861;50.240;8.596;2022-10-18T08:42:00;1.00;;;0.70;;
3689;SDS011;1861;50.240;8.596;2022-10-18T08:44:49;1.17;;;1.07;;
3689;SDS011;1861;50.240;8.596;2022-10-18T08:47:19;0.80;;;0.70;;
3689;SDS011;1861;50.240;8.596;2022-10-18T08:49:49;1.00;;;0.80;;
3689;SDS011;1861;50.240;8.596;2022-10-18T08:52:24;0.70;;;0.57;;
3689;SDS011;1861;50.240;8.596;2022-10-18T08:54:58;0.93;;;0.80;;
3689;SDS011;1861;50.240;8.596;2022-10-18T08:57:29;4.10;;;0.73;;
3689;SDS011;1861;50.240;8.596;2022-10-18T08:59:58;1.30;;;0.90;;
3689;SDS011;1861;50.240;8.596;2022-10-18T09:02:31;1.90;;;0.77;;
3689;SDS011;1861;50.240;8.596;2022-10-18T09:05:11;1.00;;;0.70;;
3689;SDS011;1861;50.240;8.596;2022-10-18T09:07:52;0.70;;;0.60;;
3689;SDS011;1861;50.240;8.596;2022-10-18T09:10:40;1.00;;;0.73;;
3689;SDS011;1861;50.240;8.596;2022-10-18T09:13:16;0.90;;;0.70;;
3689;SDS011;1861;50.240;8.596;2022-10-18T09:16:04;0.90;;;0.80;;
3689;SDS011;1861;50.240;8.596;2022-10-18T09:18:47;2.20;;;1.10;;
3689;SDS011;1861;50.240;8.596;2022-10-18T09:21:23;0.97;;;0.87;;
3689;SDS011;1861;50.240;8.596;2022-10-18T09:24:07;1.73;;;1.00;;
3689;SDS011;1861;50.240;8.596;2022-10-18T09:26:40;1.40;;;1.17;;
3689;SDS011;1861;50.240;8.596;2022-10-18T09:29:19;0.80;;;0.80;;
3689;SDS011;1861;50.240;8.596;2022-10-18T09:32:20;2.17;;;1.00;;
3689;SDS011;1861;50.240;8.596;2022-10-18T09:34:55;2.07;;;0.70;;
3689;SDS011;1861;50.240;8.596;2022-10-18T09:37:26;1.48;;;0.77;;
3689;SDS011;1861;50.240;8.596;2022-10-18T09:40:02;1.13;;;0.70;;
3689;SDS011;1861;50.240;8.596;2022-10-18T09:42:33;0.90;;;0.70;;
3689;SDS011;1861;50.240;8.596;2022-10-18T09:45:07;1.43;;;0.97;;
3689;SDS011;1861;50.240;8.596;2022-10-18T09:47:47;1.20;;;0.90;;
3689;SDS011;1861;50.240;8.596;2022-10-18T09:50:22;1.53;;;0.90;;
3689;SDS011;1861;50.240;8.596;2022-10-18T09:52:55;1.73;;;0.70;;
3689;SDS011;1861;50.240;8.596;2022-10-18T09:55:32;0.70;;;0.70;;
3689;SDS011;1861;50.240;8.596;2022-10-18T09:58:05;1.00;;;0.90;;
3689;SDS011;1861;50.240;8.596;2022-10-18T10:00:37;1.27;;;0.80;;
3689;SDS011;1861;50.240;8.596;2022-10-18T10:03:12;0.90;;;0.90;;
3689;SDS011;1861;50.240;8.596;2022-10-18T10:05:41;0.70;;;0.70;;
3689;SDS011;1861;50.240;8.596;2022-10-18T10:08:09;4.27;;;0.80;;
3689;SDS011;1861;50.240;8.596;2022-10-18T10:10:40;2.10;;;0.70;;
3689;SDS011;1861;50.240;8.596;2022-10-18T10:13:14;0.70;;;0.70;;
3689;SDS011;1861;50.240;8.596;2022-10-18T10:15:44;2.00;;;0.80;;
3689;SDS011;1861;50.240;8.596;2022-10-18T10:18:19;1.83;;;0.70;;
3689;SDS011;1861;50.240;8.596;2022-10-18T10:20:49;1.25;;;0.90;;
3689;SDS011;1861;50.240;8.596;2022-10-18T10:23:20;0.90;;;0.90;;
3689;SDS011;1861;50.240;8.596;2022-10-18T10:25:52;0.80;;;0.70;;
3689;SDS011;1861;50.240;8.596;2022-10-18T10:28:23;3.23;;;0.77;;
3689;SDS011;1861;50.240;8.596;2022-10-18T10:30:57;0.97;;;0.93;;
3689;SDS011;1861;50.240;8.596;2022-10-18T10:33:44;2.50;;;0.90;;
3689;SDS011;1861;50.240;8.596;2022-10-18T10:36:17;1.10;;;0.90;;
3689;SDS011;1861;50.240;8.596;2022-10-18T10:38:50;0.90;;;0.90;;
3689;SDS011;1861;50.240;8.596;2022-10-18T10:41:31;3.83;;;1.00;;
3689;SDS011;1861;50.240;8.596;2022-10-18T10:44:00;0.93;;;0.93;;
3689;SDS011;1861;50.240;8.596;2022-10-18T10:46:33;2.93;;;1.17;;
3689;SDS011;1861;50.240;8.596;2022-10-18T10:49:02;0.90;;;0.90;;
3689;SDS011;1861;50.240;8.596;2022-10-18T10:51:52;1.30;;;1.07;;
3689;SDS011;1861;50.240;8.596;2022-10-18T10:54:42;1.30;;;0.70;;
3689;SDS011;1861;50.240;8.596;2022-10-18T10:57:19;0.83;;;0.77;;
3689;SDS011;1861;50.240;8.596;2022-10-18T10:59:51;1.10;;;0.90;;
3689;SDS011;1861;50.240;8.596;2022-10-18T11:02:21;0.70;;;0.70;;
3689;SDS011;1861;50.240;8.596;2022-10-18T11:04:53;0.73;;;0.73;;
3689;SDS011;1861;50.240;8.596;2022-10-18T11:07:22;0.93;;;0.83;;
3689;SDS011;1861;50.240;8.596;2022-10-18T11:09:55;0.70;;;0.70;;
3689;SDS011;1861;50.240;8.596;2022-10-18T11:12:52;1.17;;;0.80;;
3689;SDS011;1861;50.240;8.596;2022-10-18T11:15:28;0.90;;;0.70;;
3689;SDS011;1861;50.240;8.596;2022-10-18T11:18:03;2.15;;;0.80;;
3689;SDS011;1861;50.240;8.596;2022-10-18T11:20:41;0.70;;;0.70;;
3689;SDS011;1861;50.240;8.596;2022-10-18T11:23:11;0.70;;;0.70;;
3689;SDS011;1861;50.240;8.596;2022-10-18T11:25:53;1.27;;;0.83;;
3689;SDS011;1861;50.240;8.596;2022-10-18T11:28:36;0.70;;;0.70;;
3689;SDS011;1861;50.240;8.596;2022-10-18T11:31:44;0.80;;;0.70;;
3689;SDS011;1861;50.240;8.596;2022-10-18T11:34:24;4.63;;;0.90;;
3689;SDS011;1861;50.240;8.596;2022-10-18T11:37:08;2.03;;;0.80;;
3689;SDS011;1861;50.240;8.596;2022-10-18T11:39:58;0.90;;;0.80;;
3689;SDS011;1861;50.240;8.596;2022-10-18T11:42:37;3.13;;;0.90;;
3689;SDS011;1861;50.240;8.596;2022-10-18T11:45:17;2.92;;;0.80;;
3689;SDS011;1861;50.240;8.596;2022-10-18T11:47:57;1.00;;;0.70;;
3689;SDS011;1861;50.240;8.596;2022-10-18T11:50:33;3.40;;;0.77;;
3689;SDS011;1861;50.240;8.596;2022-10-18T11:53:10;0.70;;;0.70;;
3689;SDS011;1861;50.240;8.596;2022-10-18T11:55:47;2.40;;;0.70;;
3689;SDS011;1861;50.240;8.596;2022-10-18T11:58:37;1.87;;;0.70;;
3689;SDS011;1861;50.240;8.596;2022-10-18T12:01:18;1.43;;;0.70;;
3689;SDS011;1861;50.240;8.596;2022-10-18T12:03:56;0.80;;;0.60;;
3689;SDS011;1861;50.240;8.596;2022-10-18T12:06:31;8.73;;;0.67;;
3689;SDS011;1861;50.240;8.596;2022-10-18T12:09:03;0.80;;;0.70;;
3689;SDS011;1861;50.240;8.596;2022-10-18T12:11:42;1.00;;;0.80;;
3689;SDS011;1861;50.240;8.596;2022-10-18T12:14:23;0.90;;;0.70;;
3689;SDS011;1861;50.240;8.596;2022-10-18T12:16:56;0.70;;;0.70;;
3689;SDS011;1861;50.240;8.596;2022-10-18T12:19:48;0.65;;;0.60;;
3689;SDS011;1861;50.240;8.596;2022-10-18T12:22:19;4.93;;;0.90;;
3689;SDS011;1861;50.240;8.596;2022-10-18T12:24:58;1.43;;;0.63;;
3689;SDS011;1861;50.240;8.596;2022-10-18T12:27:30;0.70;;;0.60;;
3689;SDS011;1861;50.240;8.596;2022-10-18T12:30:03;1.27;;;0.80;;
3689;SDS011;1861;50.240;8.596;2022-10-18T12:32:39;3.33;;;1.67;;
3689;SDS011;1861;50.240;8.596;2022-10-18T12:35:28;7.90;;;0.90;;
3689;SDS011;1861;50.240;8.596;2022-10-18T12:38:06;4.70;;;0.80;;
3689;SDS011;1861;50.240;8.596;2022-10-18T12:40:45;0.70;;;0.65;;
3689;SDS011;1861;50.240;8.596;2022-10-18T12:43:16;1.10;;;0.70;;
3689;SDS011;1861;50.240;8.596;2022-10-18T12:45:49;1.15;;;0.80;;
3689;SDS011;1861;50.240;8.596;2022-10-18T12:48:30;0.80;;;0.80;;
3689;SDS011;1861;50.240;8.596;2022-10-18T12:51:03;2.60;;;0.67;;
3689;SDS011;1861;50.240;8.596;2022-10-18T12:53:33;1.15;;;0.63;;
3689;SDS011;1861;50.240;8.596;2022-10-18T13:02:18;0.90;;;0.60;;
3689;SDS011;1861;50.240;8.596;2022-10-18T13:04:55;0.98;;;0.70;;
3689;SDS011;1861;50.240;8.596;2022-10-18T13:07:35;0.93;;;0.77;;
3689;SDS011;1861;50.240;8.596;2022-10-18T13:13:07;0.70;;;0.70;;
3689;SDS011;1861;50.240;8.596;2022-10-18T13:16:08;5.20;;;0.80;;
3689;SDS011;1861;50.240;8.596;2022-10-18T13:18:50;1.05;;;0.60;;
3689;SDS011;1861;50.240;8.596;2022-10-18T13:21:24;0.70;;;0.53;;
3689;SDS011;1861;50.240;8.596;2022-10-18T13:24:06;1.00;;;0.70;;
3689;SDS011;1861;50.240;8.596;2022-10-18T13:26:49;0.70;;;0.70;;
3689;SDS011;1861;50.240;8.596;2022-10-18T13:29:54;0.73;;;0.73;;
3689;SDS011;1861;50.240;8.596;2022-10-18T13:32:35;3.65;;;1.80;;
3689;SDS011;1861;50.240;8.596;2022-10-18T13:41:13;0.60;;;0.60;;
3689;SDS011;1861;50.240;8.596;2022-10-18T13:43:52;0.70;;;0.60;;
3689;SDS011;1861;50.240;8.596;2022-10-18T13:49:54;0.90;;;0.80;;
3689;SDS011;1861;50.240;8.596;2022-10-18T13:53:05;2.15;;;1.67;;
3689;SDS011;1861;50.240;8.596;2022-10-18T13:56:03;0.70;;;0.60;;
3689;SDS011;1861;50.240;8.596;2022-10-18T13:58:53;0.95;;;0.70;;
3689;SDS011;1861;50.240;8.596;2022-10-18T14:01:43;0.95;;;0.73;;
3689;SDS011;1861;50.240;8.596;2022-10-18T14:04:35;0.70;;;0.63;;
3689;SDS011;1861;50.240;8.596;2022-10-18T14:07:09;0.90;;;0.80;;
3689;SDS011;1861;50.240;8.596;2022-10-18T14:09:43;3.27;;;1.47;;
3689;SDS011;1861;50.240;8.596;2022-10-18T14:12:24;2.20;;;0.80;;
3689;SDS011;1861;50.240;8.596;2022-10-18T14:14:58;3.13;;;1.13;;
3689;SDS011;1861;50.240;8.596;2022-10-18T14:17:34;1.10;;;0.80;;
3689;SDS011;1861;50.240;8.596;2022-10-18T14:20:12;0.93;;;0.70;;
3689;SDS011;1861;50.240;8.596;2022-10-18T14:22:45;0.77;;;0.77;;
3689;SDS011;1861;50.240;8.596;2022-10-18T14:25:18;0.80;;;0.80;;
3689;SDS011;1861;50.240;8.596;2022-10-18T14:28:02;1.60;;;0.70;;
3689;SDS011;1861;50.240;8.596;2022-10-18T14:30:49;0.80;;;0.70;;
3689;SDS011;1861;50.240;8.596;2022-10-18T14:33:45;0.70;;;0.70;;
3689;SDS011;1861;50.240;8.596;2022-10-18T14:36:22;1.00;;;0.90;;
3689;SDS011;1861;50.240;8.596;2022-10-18T14:38:51;0.80;;;0.80;;
3689;SDS011;1861;50.240;8.596;2022-10-18T14:41:22;1.25;;;0.70;;
3689;SDS011;1861;50.240;8.596;2022-10-18T14:43:55;0.70;;;0.70;;
3689;SDS011;1861;50.240;8.596;2022-10-18T14:46:43;1.10;;;0.90;;
3689;SDS011;1861;50.240;8.596;2022-10-18T14:49:13;2.50;;;1.17;;
3689;SDS011;1861;50.240;8.596;2022-10-18T14:51:44;5.55;;;0.80;;
3689;SDS011;1861;50.240;8.596;2022-10-18T14:54:15;1.43;;;0.80;;
3689;SDS011;1861;50.240;8.596;2022-10-18T14:56:44;0.90;;;0.77;;
3689;SDS011;1861;50.240;8.596;2022-10-18T14:59:16;1.25;;;0.77;;
3689;SDS011;1861;50.240;8.596;2022-10-18T15:01:50;1.00;;;0.90;;
3689;SDS011;1861;50.240;8.596;2022-10-18T15:04:21;2.28;;;0.85;;
3689;SDS011;1861;50.240;8.596;2022-10-18T15:06:54;4.50;;;0.88;;
3689;SDS011;1861;50.240;8.596;2022-10-18T15:09:22;1.47;;;1.00;;
3689;SDS011;1861;50.240;8.596;2022-10-18T15:11:51;3.33;;;1.90;;
3689;SDS011;1861;50.240;8.596;2022-10-18T15:14:25;1.37;;;0.90;;
3689;SDS011;1861;50.240;8.596;2022-10-18T15:16:55;5.47;;;3.70;;
3689;SDS011;1861;50.240;8.596;2022-10-18T15:19:27;2.60;;;0.97;;
3689;SDS011;1861;50.240;8.596;2022-10-18T15:22:00;1.43;;;0.90;;
3689;SDS011;1861;50.240;8.596;2022-10-18T15:25:02;1.00;;;0.90;;
3689;SDS011;1861;50.240;8.596;2022-10-18T15:27:42;1.00;;;0.90;;
3689;SDS011;1861;50.240;8.596;2022-10-18T15:30:15;0.77;;;0.77;;
3689;SDS011;1861;50.240;8.596;2022-10-18T15:32:47;2.67;;;0.95;;
3689;SDS011;1861;50.240;8.596;2022-10-18T15:35:18;1.13;;;1.03;;
3689;SDS011;1861;50.240;8.596;2022-10-18T15:37:52;1.00;;;0.90;;
3689;SDS011;1861;50.240;8.596;2022-10-18T15:46:25;2.03;;;0.90;;
3689;SDS011;1861;50.240;8.596;2022-10-18T15:48:57;1.03;;;0.93;;
3689;SDS011;1861;50.240;8.596;2022-10-18T15:52:26;1.15;;;1.00;;
3689;SDS011;1861;50.240;8.596;2022-10-18T15:58:05;4.33;;;0.83;;
3689;SDS011;1861;50.240;8.596;2022-10-18T16:00:38;1.33;;;0.90;;
3689;SDS011;1861;50.240;8.596;2022-10-18T16:03:09;1.25;;;1.00;;
3689;SDS011;1861;50.240;8.596;2022-10-18T16:05:38;1.17;;;0.80;;
3689;SDS011;1861;50.240;8.596;2022-10-18T16:08:15;1.43;;;1.23;;
3689;SDS011;1861;50.240;8.596;2022-10-18T16:10:48;5.00;;;1.60;;
3689;SDS011;1861;50.240;8.596;2022-10-18T16:13:17;1.70;;;1.60;;
3689;SDS011;1861;50.240;8.596;2022-10-18T16:15:45;4.03;;;1.83;;
3689;SDS011;1861;50.240;8.596;2022-10-18T16:18:16;1.90;;;1.80;;
3689;SDS011;1861;50.240;8.596;2022-10-18T16:20:45;1.60;;;1.50;;
3689;SDS011;1861;50.240;8.596;2022-10-18T16:23:15;2.28;;;1.27;;
3689;SDS011;1861;50.240;8.596;2022-10-18T16:25:45;2.63;;;1.30;;
3689;SDS011;1861;50.240;8.596;2022-10-18T16:28:14;3.53;;;1.35;;
3689;SDS011;1861;50.240;8.596;2022-10-18T16:30:44;3.15;;;2.28;;